Quincy Center, Massachusetts
Current Conditions -  °F | °C
As of 9:32 PM on Wednesday 22 Oct 2014 (Local Time) from KBOS Reporting Station
Drizzle Drizzle  
Wind Chill: 52°   Ceiling: 900
Heat Index: 52°   Visibility: 4mi
Dew Point: 50°   Wind: 39mph
Humidity: 94%   Direction: 30°NNE
Pressure: 29.8"   Gusts: 51mph
Location:  42.2468°N, 71.0071°W
Report Text: KBOS 230132Z 03034G44KT 4SM -DZ BR BKN009 OVC014 11/10 A2980 RMK AO2 PK WND 03044/0130 RAE13DZB26 P0000
Loading
Personal Weather Stations






























Interactive Weather Map
Tropical Storm Tracking
New forecast layout! Learn more

10-Day Weather Forecast

Advertisements
Track Severe Weather on mobile